createdAt,value
2019-04-21T00:00:33.473Z,4.03
2019-04-21T00:03:12.941Z,3.70
2019-04-21T00:05:58.935Z,3.80
2019-04-21T00:08:33.369Z,4.17
2019-04-21T00:11:03.023Z,3.90
2019-04-21T00:13:23.343Z,3.90
2019-04-21T00:15:48.655Z,4.13
2019-04-21T00:18:31.084Z,4.03
2019-04-21T00:21:12.117Z,3.90
2019-04-21T00:23:49.920Z,3.93
2019-04-21T00:26:25.382Z,4.07
2019-04-21T00:28:59.497Z,3.73
2019-04-21T00:31:27.285Z,4.00
2019-04-21T00:33:42.692Z,3.80
2019-04-21T00:36:16.727Z,3.60
2019-04-21T00:39:15.783Z,3.90
2019-04-21T00:41:38.366Z,3.90
2019-04-21T00:43:59.414Z,4.10
2019-04-21T00:46:30.819Z,3.93
2019-04-21T00:49:06.124Z,3.70
2019-04-21T00:52:14.510Z,4.13
2019-04-21T00:54:21.372Z,3.87
2019-04-21T00:56:49.752Z,3.40
2019-04-21T00:59:19.580Z,3.63
2019-04-21T01:01:49.099Z,3.77
2019-04-21T01:04:23.605Z,4.13
2019-04-21T01:06:54.425Z,3.80
2019-04-21T01:09:27.551Z,3.40
2019-04-21T01:12:03.720Z,3.80
2019-04-21T01:14:45.574Z,4.03
2019-04-21T01:17:07.142Z,3.80
2019-04-21T01:19:36.462Z,3.70
2019-04-21T01:21:47.423Z,3.73
2019-04-21T01:24:25.964Z,3.60
2019-04-21T01:27:01.993Z,3.73
2019-04-21T01:29:41.776Z,3.80
2019-04-21T01:32:19.423Z,3.80
2019-04-21T01:34:45.574Z,3.90
2019-04-21T01:37:15.852Z,3.90
2019-04-21T01:39:53.231Z,4.00
2019-04-21T01:42:21.709Z,4.10
2019-04-21T01:44:56.370Z,3.60
2019-04-21T01:47:23.180Z,3.77
2019-04-21T01:49:47.532Z,3.87
2019-04-21T01:52:38.669Z,3.73
2019-04-21T01:55:18.482Z,3.80
2019-04-21T01:58:03.294Z,3.90
2019-04-21T02:00:45.641Z,4.17
2019-04-21T02:03:38.368Z,3.90
2019-04-21T02:05:59.703Z,3.57
2019-04-21T02:08:21.503Z,3.87
2019-04-21T02:11:03.435Z,3.90
2019-04-21T02:13:23.196Z,4.17
2019-04-21T02:16:05.449Z,3.97
2019-04-21T02:18:27.989Z,4.43
2019-04-21T02:20:49.996Z,4.20
2019-04-21T02:23:41.190Z,4.00
2019-04-21T02:26:05.027Z,3.87
2019-04-21T02:28:42.821Z,3.90
2019-04-21T02:33:56.301Z,3.87
2019-04-21T02:36:32.810Z,4.10
2019-04-21T02:38:57.895Z,4.37
2019-04-21T02:41:21.388Z,3.80
2019-04-21T02:44:02.260Z,3.70
2019-04-21T02:46:31.252Z,4.17
2019-04-21T02:51:33.739Z,4.67
2019-04-21T02:54:32.336Z,4.07
2019-04-21T02:56:51.478Z,4.23
2019-04-21T03:02:04.219Z,4.40
2019-04-21T03:04:47.492Z,4.10
2019-04-21T03:07:25.459Z,3.90
2019-04-21T03:09:49.651Z,4.17
2019-04-21T03:12:17.923Z,3.80
2019-04-21T03:17:33.923Z,3.73
2019-04-21T03:22:24.219Z,4.00
2019-04-21T03:25:22.819Z,4.00
2019-04-21T03:27:41.066Z,3.77
2019-04-21T03:30:26.269Z,3.70
2019-04-21T03:33:09.012Z,3.60
2019-04-21T03:37:37.005Z,3.30
2019-04-21T03:40:15.203Z,3.47
2019-04-21T03:45:23.728Z,3.60
2019-04-21T03:47:43.388Z,3.60
2019-04-21T03:53:00.853Z,3.60
2019-04-21T03:58:19.695Z,3.80
2019-04-21T04:01:04.140Z,3.90
2019-04-21T04:06:19.475Z,3.70
2019-04-21T04:11:45.741Z,3.20
2019-04-21T04:14:12.835Z,3.60
2019-04-21T04:16:52.193Z,4.03
2019-04-21T04:19:06.130Z,3.70
2019-04-21T04:21:52.536Z,3.90
2019-04-21T04:24:22.032Z,3.67
2019-04-21T04:26:53.616Z,4.00
2019-04-21T04:29:19.215Z,4.20
2019-04-21T04:31:44.041Z,3.57
2019-04-21T04:34:29.276Z,3.43
2019-04-21T04:40:00.796Z,3.90
2019-04-21T04:42:31.304Z,4.10
2019-04-21T04:45:10.257Z,3.50
2019-04-21T04:52:38.489Z,3.80
2019-04-21T04:57:34.282Z,3.90
2019-04-21T05:02:37.579Z,3.90
2019-04-21T05:05:13.772Z,4.23
2019-04-21T05:12:35.790Z,4.27
2019-04-21T05:15:07.756Z,4.37
2019-04-21T05:20:11.619Z,4.07
2019-04-21T05:22:48.545Z,3.70
2019-04-21T05:25:07.064Z,3.97
2019-04-21T05:27:39.656Z,4.00
2019-04-21T05:33:19.240Z,4.17
2019-04-21T05:36:12.989Z,3.97
2019-04-21T05:39:06.864Z,3.60
2019-04-21T05:41:33.593Z,4.23
2019-04-21T05:44:12.522Z,3.90
2019-04-21T05:46:53.396Z,4.20
2019-04-21T05:49:25.315Z,4.10
2019-04-21T05:51:55.784Z,3.83
2019-04-21T05:54:39.019Z,3.83
2019-04-21T05:57:08.615Z,4.17
2019-04-21T05:59:40.050Z,4.30
2019-04-21T06:02:19.133Z,3.80
2019-04-21T06:05:05.669Z,3.90
2019-04-21T06:07:19.053Z,4.30
2019-04-21T06:09:51.387Z,4.00
2019-04-21T06:12:16.437Z,3.90
2019-04-21T06:17:23.751Z,4.40
2019-04-21T06:19:57.158Z,4.20
2019-04-21T06:22:19.176Z,4.20
2019-04-21T06:25:21.237Z,3.97
2019-04-21T06:30:00.135Z,4.00
2019-04-21T06:35:36.018Z,4.03
2019-04-21T06:37:49.178Z,4.53
2019-04-21T06:40:27.749Z,4.57
2019-04-21T06:43:04.390Z,4.67
2019-04-21T06:45:37.732Z,4.47
2019-04-21T06:48:04.475Z,4.10
2019-04-21T06:50:41.226Z,5.00
2019-04-21T06:53:14.593Z,4.50
2019-04-21T06:55:37.978Z,4.40
2019-04-21T06:58:11.693Z,4.53
2019-04-21T07:00:38.479Z,4.43
2019-04-21T07:05:50.566Z,4.50
2019-04-21T07:08:30.955Z,4.20
2019-04-21T07:10:53.334Z,4.60
2019-04-21T07:13:22.260Z,4.47
2019-04-21T07:15:56.821Z,4.40
2019-04-21T07:18:29.806Z,4.30
2019-04-21T07:21:00.149Z,4.37
2019-04-21T07:23:31.630Z,4.40
2019-04-21T07:26:05.792Z,4.43
2019-04-21T07:28:31.753Z,4.30
2019-04-21T07:31:11.194Z,4.10
2019-04-21T07:36:16.238Z,4.40
2019-04-21T07:38:36.200Z,4.17
2019-04-21T07:41:02.162Z,4.37
2019-04-21T07:43:39.339Z,4.10
2019-04-21T07:46:06.491Z,3.90
2019-04-21T07:48:50.070Z,4.13
2019-04-21T07:51:50.991Z,4.50
2019-04-21T07:54:23.795Z,4.40
2019-04-21T07:56:35.142Z,4.40
2019-04-21T07:59:30.238Z,4.20
2019-04-21T08:01:55.039Z,4.40
2019-04-21T08:04:43.907Z,4.67
2019-04-21T08:06:53.672Z,4.17
2019-04-21T08:09:29.810Z,4.40
2019-04-21T08:11:51.806Z,4.20
2019-04-21T08:14:43.646Z,4.03
2019-04-21T08:17:04.844Z,4.10
2019-04-21T08:19:32.514Z,3.87
2019-04-21T08:22:11.429Z,4.10
2019-04-21T08:24:46.888Z,3.97
2019-04-21T08:27:11.022Z,3.83
2019-04-21T08:29:46.487Z,4.83
2019-04-21T08:32:14.578Z,4.20
2019-04-21T08:34:55.878Z,4.50
2019-04-21T08:37:18.760Z,4.43
2019-04-21T08:40:27.294Z,4.10
2019-04-21T08:42:26.939Z,4.27
2019-04-21T08:44:54.426Z,4.80
2019-04-21T08:47:25.986Z,4.33
2019-04-21T08:50:03.522Z,4.07
2019-04-21T08:55:11.144Z,4.20
2019-04-21T08:58:17.471Z,4.07
2019-04-21T09:00:46.774Z,3.90
2019-04-21T09:03:35.504Z,4.10
2019-04-21T09:06:09.259Z,3.30
2019-04-21T09:08:39.777Z,3.30
2019-04-21T09:11:05.661Z,3.83
2019-04-21T09:13:42.831Z,3.60
2019-04-21T09:16:08.506Z,3.47
2019-04-21T09:18:43.323Z,3.70
2019-04-21T09:21:21.892Z,3.40
2019-04-21T09:23:45.343Z,3.60
2019-04-21T09:26:18.774Z,3.43
2019-04-21T09:28:48.185Z,3.53
2019-04-21T09:31:06.680Z,3.30
2019-04-21T09:33:41.304Z,3.10
2019-04-21T09:36:14.153Z,3.10
2019-04-21T09:38:42.447Z,2.90
2019-04-21T09:41:16.216Z,2.90
2019-04-21T09:43:50.123Z,3.00
2019-04-21T09:46:16.171Z,3.07
2019-04-21T09:48:53.855Z,3.03
2019-04-21T09:51:17.897Z,2.83
2019-04-21T09:53:56.602Z,2.60
2019-04-21T09:56:31.283Z,2.80
2019-04-21T09:58:57.412Z,3.00
2019-04-21T10:01:32.224Z,2.80
2019-04-21T10:03:58.650Z,3.00
2019-04-21T10:06:26.594Z,3.10
2019-04-21T10:09:03.973Z,2.90
2019-04-21T10:11:29.282Z,2.57
2019-04-21T10:13:59.274Z,2.93
2019-04-21T10:16:46.997Z,2.80
2019-04-21T10:19:17.506Z,2.90
2019-04-21T10:21:47.799Z,3.00
2019-04-21T10:24:18.117Z,3.60
2019-04-21T10:26:49.337Z,3.20
2019-04-21T10:29:25.471Z,3.10
2019-04-21T10:31:50.948Z,2.70
2019-04-21T10:34:21.128Z,2.80
2019-04-21T10:36:53.125Z,3.23
2019-04-21T10:39:23.929Z,3.43
2019-04-21T10:41:55.163Z,3.10
2019-04-21T10:44:25.324Z,3.23
2019-04-21T10:46:56.027Z,3.13
2019-04-21T10:49:26.598Z,2.80
2019-04-21T10:51:57.343Z,2.93
2019-04-21T10:54:47.823Z,2.90
2019-04-21T10:57:02.688Z,2.90
2019-04-21T10:59:33.225Z,3.27
2019-04-21T11:02:07.198Z,3.87
2019-04-21T11:04:40.269Z,3.30
2019-04-21T11:07:52.995Z,2.97
2019-04-21T11:10:11.814Z,3.13
2019-04-21T11:12:43.195Z,3.00
2019-04-21T11:15:14.800Z,2.80
2019-04-21T11:17:45.566Z,3.10
2019-04-21T11:20:17.241Z,3.37
2019-04-21T11:22:47.381Z,3.03
2019-04-21T11:25:18.255Z,3.13
2019-04-21T11:27:49.045Z,3.10
2019-04-21T11:30:19.989Z,3.00
2019-04-21T11:32:51.137Z,2.97
2019-04-21T11:35:21.340Z,3.27
2019-04-21T11:37:53.454Z,2.80
2019-04-21T11:40:25.286Z,3.20
2019-04-21T11:42:55.947Z,2.90
2019-04-21T11:45:32.709Z,3.40
2019-04-21T11:48:08.189Z,2.90
2019-04-21T11:50:39.283Z,3.00
2019-04-21T11:53:10.524Z,3.10
2019-04-21T11:55:43.587Z,3.00
2019-04-21T11:58:12.244Z,3.00
2019-04-21T12:00:43.011Z,2.90
2019-04-21T12:03:15.272Z,2.90
2019-04-21T12:05:45.534Z,3.07
2019-04-21T12:08:23.013Z,3.03
2019-04-21T12:10:47.380Z,3.33
2019-04-21T12:13:18.569Z,3.40
2019-04-21T12:15:49.194Z,3.40
2019-04-21T12:18:19.796Z,3.07
2019-04-21T12:20:51.628Z,3.10
2019-04-21T12:23:22.666Z,3.50
2019-04-21T12:25:52.802Z,3.37
2019-04-21T12:28:23.889Z,3.07
2019-04-21T12:30:54.203Z,3.20
2019-04-21T12:33:52.298Z,3.00
2019-04-21T12:36:24.054Z,3.17
2019-04-21T12:38:57.875Z,3.23
2019-04-21T12:41:26.695Z,3.17
2019-04-21T12:43:57.041Z,3.30
2019-04-21T12:46:28.250Z,3.20
2019-04-21T12:48:58.240Z,3.13
2019-04-21T12:51:28.339Z,3.20
2019-04-21T12:53:59.578Z,3.40
2019-04-21T12:56:29.520Z,3.17
2019-04-21T12:58:59.655Z,3.40
2019-04-21T13:01:30.732Z,3.27
2019-04-21T13:04:01.829Z,2.80
2019-04-21T13:06:31.951Z,3.23
2019-04-21T13:09:06.929Z,3.20
2019-04-21T13:11:35.086Z,3.30
2019-04-21T13:14:06.135Z,3.20
2019-04-21T13:16:37.155Z,2.90
2019-04-21T13:19:07.306Z,2.87
2019-04-21T13:21:38.142Z,3.00
2019-04-21T13:24:08.326Z,3.17
2019-04-21T13:26:45.608Z,2.70
2019-04-21T13:29:10.364Z,2.93
2019-04-21T13:31:40.497Z,3.00
2019-04-21T13:34:10.641Z,3.00
2019-04-21T13:36:43.452Z,3.20
2019-04-21T13:39:55.217Z,3.20
2019-04-21T13:42:13.438Z,2.90
2019-04-21T13:44:37.083Z,3.07
2019-04-21T13:47:07.374Z,2.97
2019-04-21T13:49:37.384Z,2.87
2019-04-21T13:52:08.947Z,2.70
2019-04-21T13:54:40.258Z,2.93
2019-04-21T13:57:10.532Z,3.03
2019-04-21T13:59:40.510Z,2.90
2019-04-21T14:02:11.128Z,2.80
2019-04-21T14:04:41.423Z,2.70
2019-04-21T14:07:12.224Z,2.90
2019-04-21T14:09:52.806Z,2.70
2019-04-21T14:12:14.035Z,2.73
2019-04-21T14:14:44.188Z,2.40
2019-04-21T14:17:15.064Z,2.57
2019-04-21T14:19:45.599Z,2.30
2019-04-21T14:22:18.080Z,2.77
2019-04-21T14:24:48.106Z,2.73
2019-04-21T14:27:18.510Z,3.00
2019-04-21T14:29:49.252Z,2.70
2019-04-21T14:32:20.248Z,2.80
2019-04-21T14:34:53.430Z,2.70
2019-04-21T14:37:22.616Z,2.97
2019-04-21T14:40:01.299Z,2.80
2019-04-21T14:42:24.384Z,3.10
2019-04-21T14:44:54.692Z,2.60
2019-04-21T14:47:52.529Z,2.80
2019-04-21T14:50:40.022Z,2.50
2019-04-21T14:53:31.870Z,2.70
2019-04-21T14:56:01.837Z,2.90
2019-04-21T14:58:32.963Z,2.90
2019-04-21T15:01:06.016Z,2.80
2019-04-21T15:03:37.524Z,2.83
2019-04-21T15:06:07.610Z,2.90
2019-04-21T15:08:39.459Z,2.90
2019-04-21T15:11:09.591Z,3.10
2019-04-21T15:13:39.786Z,2.80
2019-04-21T15:16:11.026Z,2.60
2019-04-21T15:18:41.213Z,2.80
2019-04-21T15:21:11.217Z,2.67
2019-04-21T15:23:42.440Z,3.07
2019-04-21T15:26:12.490Z,2.80
2019-04-21T15:28:42.593Z,2.93
2019-04-21T15:31:21.770Z,3.00
2019-04-21T15:33:45.270Z,2.90
2019-04-21T15:36:16.717Z,2.90
2019-04-21T15:38:47.907Z,3.10
2019-04-21T15:41:18.603Z,2.90
2019-04-21T15:43:48.886Z,3.07
2019-04-21T15:46:18.895Z,3.03
2019-04-21T15:48:48.936Z,3.00
2019-04-21T15:51:19.799Z,2.90
2019-04-21T15:53:50.168Z,3.27
2019-04-21T15:56:54.564Z,3.10
2019-04-21T15:59:42.360Z,3.10
2019-04-21T16:02:30.715Z,3.53
2019-04-21T16:05:01.096Z,3.17
2019-04-21T16:07:31.982Z,2.90
2019-04-21T16:10:04.933Z,2.80
2019-04-21T16:12:33.945Z,2.90
2019-04-21T16:15:04.933Z,2.90
2019-04-21T16:17:35.298Z,2.93
2019-04-21T16:20:06.170Z,2.97
2019-04-21T16:22:36.802Z,3.20
2019-04-21T16:25:08.630Z,3.03
2019-04-21T16:27:39.416Z,3.07
2019-04-21T16:30:10.377Z,3.30
2019-04-21T16:32:41.931Z,3.00
2019-04-21T16:35:14.513Z,3.20
2019-04-21T16:37:45.731Z,3.00
2019-04-21T16:40:17.479Z,3.30
2019-04-21T16:42:48.017Z,2.87
2019-04-21T16:45:18.933Z,3.07
2019-04-21T16:47:51.854Z,3.37
2019-04-21T16:50:21.514Z,2.90
2019-04-21T16:52:56.232Z,3.27
2019-04-21T16:55:34.991Z,3.03
2019-04-21T16:58:40.927Z,3.10
2019-04-21T17:01:16.478Z,3.10
2019-04-21T17:03:44.632Z,3.00
2019-04-21T17:06:15.277Z,3.03
2019-04-21T17:08:45.342Z,3.20
2019-04-21T17:11:23.225Z,3.00
2019-04-21T17:13:49.863Z,2.90
2019-04-21T17:16:51.485Z,2.97
2019-04-21T17:19:01.896Z,2.63
2019-04-21T17:21:25.820Z,2.90
2019-04-21T17:23:56.618Z,2.80
2019-04-21T17:26:27.029Z,3.27
2019-04-21T17:28:58.502Z,2.90
2019-04-21T17:31:28.925Z,2.60
2019-04-21T17:34:06.366Z,2.90
2019-04-21T17:36:30.560Z,2.53
2019-04-21T17:39:01.824Z,2.70
2019-04-21T17:41:41.495Z,2.87
2019-04-21T17:44:06.690Z,2.87
2019-04-21T17:46:45.858Z,2.83
2019-04-21T17:49:08.735Z,3.03
2019-04-21T17:52:00.878Z,3.00
2019-04-21T17:54:43.578Z,2.80
2019-04-21T17:57:26.737Z,2.70
2019-04-21T18:00:07.139Z,2.90
2019-04-21T18:02:38.149Z,2.83
2019-04-21T18:05:08.626Z,2.90
2019-04-21T18:07:39.894Z,3.00
2019-04-21T18:10:07.720Z,2.83
2019-04-21T18:12:36.216Z,3.03
2019-04-21T18:15:02.408Z,3.27
2019-04-21T18:17:24.649Z,3.17
2019-04-21T18:19:56.708Z,3.27
2019-04-21T18:22:47.908Z,3.17
2019-04-21T18:25:28.035Z,3.00
2019-04-21T18:27:50.542Z,3.20
2019-04-21T18:30:42.339Z,3.27
2019-04-21T18:33:21.302Z,3.10
2019-04-21T18:36:04.521Z,3.17
2019-04-21T18:39:12.318Z,3.57
2019-04-21T18:41:29.836Z,3.27
2019-04-21T18:44:30.309Z,3.23
2019-04-21T18:47:19.679Z,3.53
2019-04-21T18:49:33.275Z,3.10
2019-04-21T18:52:42.777Z,3.80
2019-04-21T18:55:09.488Z,3.00
2019-04-21T18:57:37.406Z,3.10
2019-04-21T19:00:07.819Z,3.47
2019-04-21T19:02:42.498Z,3.83
2019-04-21T19:05:13.334Z,3.17
2019-04-21T19:08:01.619Z,3.40
2019-04-21T19:10:35.392Z,3.77
2019-04-21T19:15:27.872Z,3.30
2019-04-21T19:20:39.447Z,3.30
2019-04-21T19:23:08.947Z,3.40
2019-04-21T19:25:41.266Z,3.20
2019-04-21T19:28:08.126Z,3.40
2019-04-21T19:30:50.963Z,3.20
2019-04-21T19:33:14.698Z,3.70
2019-04-21T19:35:33.298Z,3.50
2019-04-21T19:38:07.100Z,3.30
2019-04-21T19:40:54.878Z,3.20
2019-04-21T19:43:29.394Z,3.20
2019-04-21T19:45:54.256Z,3.40
2019-04-21T19:48:27.451Z,3.80
2019-04-21T19:51:01.307Z,3.63
2019-04-21T19:53:32.931Z,2.90
2019-04-21T19:55:45.756Z,3.80
2019-04-21T19:58:20.626Z,3.40
2019-04-21T20:00:50.863Z,3.23
2019-04-21T20:03:20.950Z,3.23
2019-04-21T20:05:59.487Z,3.50
2019-04-21T20:08:36.715Z,3.43
2019-04-21T20:11:15.865Z,3.43
2019-04-21T20:14:30.693Z,3.70
2019-04-21T20:16:18.992Z,4.00
2019-04-21T20:18:37.874Z,3.30
2019-04-21T20:21:01.995Z,3.30
2019-04-21T20:23:37.399Z,3.10
2019-04-21T20:26:08.082Z,3.50
2019-04-21T20:28:49.167Z,3.40
2019-04-21T20:31:24.923Z,3.77
2019-04-21T20:33:59.925Z,3.57
2019-04-21T20:36:33.197Z,3.57
2019-04-21T20:38:51.536Z,3.20
2019-04-21T20:41:28.514Z,3.13
2019-04-21T20:44:05.935Z,3.80
2019-04-21T20:46:45.653Z,3.87
2019-04-21T20:49:04.641Z,3.77
2019-04-21T20:51:37.643Z,3.60
2019-04-21T20:54:12.724Z,3.67
2019-04-21T20:56:45.333Z,3.70
2019-04-21T20:59:15.049Z,3.80
2019-04-21T21:01:48.915Z,3.80
2019-04-21T21:04:13.881Z,3.67
2019-04-21T21:06:49.592Z,4.40
2019-04-21T21:09:18.613Z,4.47
2019-04-21T21:12:11.461Z,4.37
2019-04-21T21:14:29.393Z,4.67
2019-04-21T21:17:06.452Z,4.43
2019-04-21T21:19:34.807Z,4.00
2019-04-21T21:22:01.429Z,4.13
2019-04-21T21:24:44.819Z,4.00
2019-04-21T21:27:08.513Z,3.93
2019-04-21T21:29:42.826Z,4.20
2019-04-21T21:32:17.836Z,4.30
2019-04-21T21:34:47.416Z,4.17
2019-04-21T21:37:21.817Z,3.80
2019-04-21T21:39:55.251Z,4.20
2019-04-21T21:42:02.763Z,4.17
2019-04-21T21:44:33.794Z,3.80
2019-04-21T21:47:17.234Z,4.20
2019-04-21T21:49:51.300Z,4.43
2019-04-21T21:52:16.896Z,4.90
2019-04-21T21:54:38.044Z,4.80
2019-04-21T21:57:08.297Z,4.57
2019-04-21T21:59:40.396Z,4.47
2019-04-21T22:02:16.639Z,4.40
2019-04-21T22:04:50.981Z,5.00
2019-04-21T22:07:17.065Z,4.93
2019-04-21T22:09:46.385Z,4.37
2019-04-21T22:12:18.081Z,4.27
2019-04-21T22:14:50.761Z,4.27
2019-04-21T22:17:36.822Z,4.63
2019-04-21T22:20:08.510Z,4.23
2019-04-21T22:22:36.566Z,4.80
2019-04-21T22:25:04.564Z,4.63
2019-04-21T22:27:27.363Z,5.10
2019-04-21T22:30:01.411Z,4.70
2019-04-21T22:32:31.384Z,4.33
2019-04-21T22:35:05.578Z,4.40
2019-04-21T22:37:44.883Z,4.47
2019-04-21T22:40:16.701Z,4.13
2019-04-21T22:42:48.522Z,4.27
2019-04-21T22:45:09.336Z,4.10
2019-04-21T22:47:41.548Z,4.30
2019-04-21T22:50:26.588Z,4.07
2019-04-21T22:53:02.103Z,4.43
2019-04-21T22:55:33.181Z,4.33
2019-04-21T22:58:02.046Z,4.23
2019-04-21T23:00:40.053Z,4.30
2019-04-21T23:03:10.621Z,4.23
2019-04-21T23:05:41.191Z,4.07
2019-04-21T23:08:10.935Z,4.50
2019-04-21T23:10:49.581Z,4.10
2019-04-21T23:13:19.849Z,4.33
2019-04-21T23:15:50.954Z,4.63
2019-04-21T23:18:30.792Z,4.57
2019-04-21T23:21:06.262Z,4.80
2019-04-21T23:23:42.869Z,4.27
2019-04-21T23:26:09.049Z,4.40
2019-04-21T23:28:46.690Z,4.40
2019-04-21T23:31:18.304Z,4.80
2019-04-21T23:33:29.021Z,4.20
2019-04-21T23:36:10.650Z,4.83
2019-04-21T23:38:37.474Z,4.63
2019-04-21T23:41:07.052Z,4.47
2019-04-21T23:43:35.449Z,4.17
2019-04-21T23:46:10.418Z,4.33
2019-04-21T23:48:55.915Z,4.40
2019-04-21T23:51:23.291Z,4.10
2019-04-21T23:53:41.544Z,3.90
2019-04-21T23:56:13.415Z,4.40
2019-04-21T23:58:44.860Z,4.00
